createdAt,value
2022-10-17T00:04:43.539Z,13.893279570098127
2022-10-17T00:19:59.550Z,14.357609675070487
2022-10-17T00:35:16.505Z,14.643746106831108
2022-10-17T00:50:32.499Z,14.535726438531023
2022-10-17T01:05:49.471Z,14.735171374684164
2022-10-17T01:21:06.441Z,14.66
2022-10-17T01:36:23.409Z,14.519999999999998
2022-10-17T01:51:39.396Z,14.290000000000001
2022-10-17T02:06:55.353Z,14.250000000000002
2022-10-17T02:22:11.331Z,13.99
2022-10-17T02:37:28.510Z,13.760000000000002
2022-10-17T02:52:45.272Z,13.600000000000001
2022-10-17T03:08:02.256Z,13.440000000000001
2022-10-17T03:23:19.236Z,13.330000000000002
2022-10-17T03:38:36.196Z,13.079999999999998
2022-10-17T03:53:52.141Z,12.959999999999997
2022-10-17T04:09:08.153Z,12.85
2022-10-17T04:24:25.094Z,12.829999999999998
2022-10-17T04:39:41.092Z,12.620000000000001
2022-10-17T04:54:58.034Z,12.71
2022-10-17T05:10:15.058Z,12.71
2022-10-17T05:25:31.989Z,12.620000000000001
2022-10-17T05:40:47.997Z,12.489999999999998
2022-10-17T05:56:03.929Z,12.369999999999997
2022-10-17T06:11:19.955Z,12.489999999999998
2022-10-17T06:26:36.867Z,12.5
2022-10-17T06:41:53.881Z,12.74
2022-10-17T06:57:10.824Z,14.619999999999996
2022-10-17T07:12:27.838Z,15.53
2022-10-17T07:27:44.763Z,15.330492854951903
2022-10-17T07:43:00.770Z,15.080347747074873
2022-10-17T07:58:16.711Z,14.630564066045734
2022-10-17T08:13:32.719Z,13.892099030366914
2022-10-17T08:28:49.779Z,14.142046886596235
2022-10-17T08:44:06.628Z,13.818447400438309
2022-10-17T08:59:23.636Z,14.400998552625598
2022-10-17T09:14:39.568Z,14.14036687652918
2022-10-17T09:29:56.553Z,14.708746695973323
2022-10-17T09:45:12.512Z,13.642330396078115
2022-10-17T10:00:28.564Z,13.57241522312603
2022-10-17T10:15:44.444Z,13.705558465115175
2022-10-17T10:31:02.408Z,13.991263801196448
2022-10-17T10:46:19.380Z,14.594788559833846
2022-10-17T11:01:36.324Z,14.870107605804131
2022-10-17T11:02:21.244Z,14.870107605804131
2022-10-17T11:16:53.322Z,14.711985755848657
2022-10-17T11:32:10.257Z,14.012113801656186
2022-10-17T11:47:27.218Z,13.471080398928278
2022-10-17T12:02:44.186Z,13.249521896623556
2022-10-17T12:18:00.160Z,13.524455526566834
2022-10-17T12:33:17.118Z,13.51983074840145
2022-10-17T12:48:33.113Z,13.737198423778057
2022-10-17T13:03:49.051Z,14.71999469971073
2022-10-17T13:19:05.057Z,14.183977836134158
2022-10-17T13:34:23.978Z,14.029287768514912
2022-10-17T13:49:39.988Z,14.169883749082297
2022-10-17T14:05:16.325Z,14.387158932255273
2022-10-17T14:20:40.703Z,14.247458589079825
2022-10-17T14:35:41.434Z,13.942737322416923
2022-10-17T14:50:47.882Z,14.064201061983242
2022-10-17T15:06:03.813Z,14.575682300068058
2022-10-17T15:21:33.626Z,14.383185471715827
2022-10-17T15:36:36.740Z,14.421317752659059
2022-10-17T15:51:55.157Z,14.336514678329792
2022-10-17T16:07:09.771Z,14.875306136845072
2022-10-17T16:22:26.827Z,15.168024142539817
2022-10-17T16:37:43.621Z,15.349827286103638
2022-10-17T16:52:59.613Z,15.62750607668397
2022-10-17T17:08:15.610Z,15.601985956091978
2022-10-17T17:23:31.521Z,15.484961738254183
2022-10-17T17:38:48.534Z,15.767298891921037
2022-10-17T17:54:04.469Z,16.31281440333327
2022-10-17T18:09:21.465Z,16.775811409741767
2022-10-17T18:24:38.396Z,17.317415048451913
2022-10-17T18:39:57.417Z,17.867771781104754
2022-10-17T18:55:13.341Z,18.145285504942436
2022-10-17T19:10:29.339Z,18.217180346108506
2022-10-17T19:25:45.269Z,18.316220849043194
2022-10-17T19:41:02.295Z,18.470103372084914
2022-10-17T19:56:19.221Z,18.47755365712279
2022-10-17T20:11:36.208Z,18.77009573757215
2022-10-17T20:26:52.156Z,18.883323354293736
2022-10-17T20:42:09.165Z,19.070000000000004
2022-10-17T20:57:25.100Z,18.840000000000003
2022-10-17T21:12:53.201Z,18.630000000000003
2022-10-17T21:27:57.053Z,18.559999999999995
2022-10-17T21:43:15.043Z,18.539999999999996
2022-10-17T21:58:31.011Z,18.46
2022-10-17T22:13:46.958Z,18.380000000000003
2022-10-17T22:29:03.066Z,18.29
2022-10-17T22:44:22.885Z,18.150000000000002
2022-10-17T22:59:38.900Z,17.76
2022-10-17T23:14:54.834Z,17.450000000000003
2022-10-17T23:30:11.819Z,17.17
2022-10-17T23:45:33.415Z,16.990000000000002
